Aérodrome :
LOGIN :

S'inscrire | Disclaimer

   EN    FR    IT 

 










Légende :    VFR   VFR Marginal   IFR   IFR Intensif   IFR Très Intensif
Visi : 
Plafond : 
>= 8 km
>= 3000ft
5 à 8 km
1000 à 3000 ft
1500m à 5 km
500 à 1000 ft
800 à 1500m
200 à 500 ft
< 800m
< 200 ft
Symboles :   Orages  Brouillard  Fortes neiges  Fortes précipitations  Vent > 20 kt
SIGMETs :   Divers  Orages  Givrage  Turbulence  Onde Orograph.  Cendres Volcan.






- Altitude de l'aérodrome : 302 ft
- Code IATA : CGN


EDDK - Cologne Bonn

DERNIER METAR :
  • 221020Z AUTO 20004KT 160V270 9999 FEW010 OVC031 17/14 Q1014 NOSIG

METARs EXPIRÉS :
  • 220950Z AUTO 18003KT 140V210 9999 FEW007 SCT024 BKN028 17/14 Q1014 NOSIG
  • 220920Z AUTO 16004KT 130V190 9999 -DZ FEW005 BKN027 BKN038 15/15 Q1014 NOSIG
  • 220850Z AUTO 22003KT 180V250 9999 -DZ FEW005 BKN019 BKN027 15/15 Q1014 TEMPO BKN014
  • 220820Z AUTO 18006KT 5000 -RADZ BR SCT004 BKN017 BKN024 15/14 Q1014 RERA TEMPO 4000 RADZ BKN004
  • 220750Z AUTO 18005KT 4100 -RADZ BR FEW013 SCT031 BKN043 15/14 Q1014 TEMPO RADZ
  • 220720Z AUTO 16006KT 9999 -RA SCT020 BKN037 BKN048 15/14 Q1013 TEMPO RA
  • 220650Z AUTO 15006KT 9999 -RA SCT021 BKN044 16/13 Q1013 TEMPO RA
  • 220620Z AUTO 14005KT 9999 FEW044 16/13 Q1013 TEMPO RA
  • 220550Z AUTO 14007KT CAVOK 15/12 Q1013 NOSIG

TAF AMD TAF EDDK
Valide du 22 à 07h jusqu'au 23 à 12h UTC


220750Z 2207/2312 17005KT 9999 SCT025 BKN035
TEMPO 2207/2210 3500 RADZ
BECMG 2208/2211 27007KT
BECMG 2217/2220 VRB03KT
BECMG 2309/2311 32005KT



MET'MAP, la Météo Aéronautique d'un coup d'oeil ! - Copyright ORBIFLY Décembre 2007 - Disclaimer

ORBIFLY MET'MAP TEAM :

Programmation & Développement : Alexandra Zaïnal
Sur une idée originale de : Baudouin d'Aumeries
Soutien technique & logistique : Manuel Goepfert
Assistance : Marc-Olivier Méhu




SOURCES & CREDITS :

   NOAA